createdAt,value
2018-10-03T00:02:31.014Z,101726.50
2018-10-03T00:05:55.492Z,101725.41
2018-10-03T00:09:19.909Z,101732.83
2018-10-03T00:12:44.350Z,101733.74
2018-10-03T00:16:08.776Z,101733.94
2018-10-03T00:19:33.227Z,101745.28
2018-10-03T00:22:57.648Z,101752.66
2018-10-03T00:26:22.053Z,101746.63
2018-10-03T00:29:46.496Z,101753.50
2018-10-03T00:33:10.932Z,101765.36
2018-10-03T00:36:35.355Z,101763.95
2018-10-03T00:39:59.837Z,101772.55
2018-10-03T00:43:24.313Z,101774.55
2018-10-03T00:46:48.747Z,101775.06
2018-10-03T00:50:13.202Z,101779.13
2018-10-03T00:53:37.601Z,101765.45
2018-10-03T00:57:02.063Z,101774.45
2018-10-03T01:00:26.485Z,101768.17
2018-10-03T01:03:50.872Z,101778.05
2018-10-03T01:07:15.270Z,101779.47
2018-10-03T01:10:39.678Z,101776.80
2018-10-03T01:14:04.100Z,101788.34
2018-10-03T01:17:28.553Z,101785.19
2018-10-03T01:20:52.982Z,101791.23
2018-10-03T01:24:17.387Z,101786.16
2018-10-03T01:27:41.809Z,101780.23
2018-10-03T01:31:06.246Z,101783.46
2018-10-03T01:34:30.659Z,101781.48
2018-10-03T01:37:55.110Z,101779.70
2018-10-03T01:41:19.513Z,101780.42
2018-10-03T01:44:43.979Z,101788.39
2018-10-03T01:48:08.414Z,101787.27
2018-10-03T01:51:32.824Z,101800.84
2018-10-03T01:54:57.317Z,101798.67
2018-10-03T01:58:21.772Z,101797.61
2018-10-03T02:01:46.212Z,101792.25
2018-10-03T02:05:10.607Z,101806.50
2018-10-03T02:08:34.998Z,101796.48
2018-10-03T02:11:59.419Z,101800.34
2018-10-03T02:15:23.828Z,101808.09
2018-10-03T02:18:48.248Z,101804.27
2018-10-03T02:22:12.681Z,101814.02
2018-10-03T02:25:37.074Z,101812.50
2018-10-03T02:29:01.525Z,101813.52
2018-10-03T02:32:26.041Z,101816.96
2018-10-03T02:35:50.513Z,101825.85
2018-10-03T02:39:14.964Z,101824.20
2018-10-03T02:42:39.440Z,101827.09
2018-10-03T02:46:03.865Z,101830.41
2018-10-03T02:49:28.335Z,101832.47
2018-10-03T02:52:52.727Z,101829.94
2018-10-03T02:56:17.150Z,101844.39
2018-10-03T02:59:41.633Z,101849.47
2018-10-03T03:03:06.069Z,101845.40
2018-10-03T03:06:30.526Z,101848.39
2018-10-03T03:09:54.957Z,101849.20
2018-10-03T03:13:19.348Z,101858.34
2018-10-03T03:16:43.764Z,101859.09
2018-10-03T03:20:08.237Z,101854.02
2018-10-03T03:23:32.620Z,101855.91
2018-10-03T03:26:57.073Z,101856.78
2018-10-03T03:30:21.481Z,101847.52
2018-10-03T03:33:45.928Z,101857.15
2018-10-03T03:37:10.372Z,101858.16
2018-10-03T03:40:34.751Z,101856.31
2018-10-03T03:43:59.188Z,101860.37
2018-10-03T03:47:23.574Z,101873.31
2018-10-03T03:50:48.028Z,101870.28
2018-10-03T03:54:12.468Z,101882.73
2018-10-03T03:57:36.961Z,101883.56
2018-10-03T04:01:01.531Z,101889.70
2018-10-03T04:04:25.981Z,101893.08
2018-10-03T04:07:50.372Z,101897.66
2018-10-03T04:11:14.783Z,101890.52
2018-10-03T04:14:39.226Z,101903.03
2018-10-03T04:18:03.687Z,101894.63
2018-10-03T04:21:37.995Z,101903.27
2018-10-03T04:25:02.427Z,101905.39
2018-10-03T04:28:26.841Z,101916.45
2018-10-03T04:31:51.224Z,101918.05
2018-10-03T04:35:15.685Z,101928.65
2018-10-03T04:38:40.084Z,101932.89
2018-10-03T04:42:04.498Z,101929.50
2018-10-03T04:45:28.939Z,101926.42
2018-10-03T04:48:53.451Z,101935.02
2018-10-03T04:52:17.785Z,101934.98
2018-10-03T04:55:42.196Z,101940.72
2018-10-03T04:59:06.891Z,101947.45
2018-10-03T05:02:31.326Z,101944.99
2018-10-03T05:06:02.491Z,101943.38
2018-10-03T05:09:26.926Z,101952.84
2018-10-03T05:12:51.360Z,101955.45
2018-10-03T05:16:15.875Z,101953.50
2018-10-03T05:19:40.274Z,101963.23
2018-10-03T05:23:04.816Z,101971.09
2018-10-03T05:27:00.321Z,101976.05
2018-10-03T05:30:24.727Z,101975.87
2018-10-03T05:33:49.178Z,101981.88
2018-10-03T05:37:13.586Z,101979.64
2018-10-03T05:40:38.041Z,101980.80
2018-10-03T05:44:02.501Z,101990.50
2018-10-03T05:47:26.873Z,101987.78
2018-10-03T05:50:51.323Z,101998.11
2018-10-03T05:54:15.761Z,101997.89
2018-10-03T05:57:40.433Z,101992.42
2018-10-03T06:01:04.874Z,102009.59
2018-10-03T06:04:29.281Z,102018.16
2018-10-03T06:07:53.756Z,102036.69
2018-10-03T06:11:18.196Z,102038.27
2018-10-03T06:14:42.649Z,102035.16
2018-10-03T06:18:07.165Z,102042.40
2018-10-03T06:21:31.615Z,102051.72
2018-10-03T06:24:56.079Z,102053.13
2018-10-03T06:28:20.606Z,102059.48
2018-10-03T06:31:44.968Z,102067.59
2018-10-03T06:35:09.398Z,102076.58
2018-10-03T06:38:33.870Z,102083.50
2018-10-03T06:41:58.333Z,102085.95
2018-10-03T06:45:22.751Z,102092.89
2018-10-03T06:48:47.177Z,102102.66
2018-10-03T06:52:11.642Z,102100.20
2018-10-03T06:55:36.112Z,102105.03
2018-10-03T06:59:01.378Z,102101.99
2018-10-03T07:02:25.799Z,102116.95
2018-10-03T07:05:50.313Z,102125.25
2018-10-03T07:09:14.724Z,102136.13
2018-10-03T07:12:39.223Z,102135.75
2018-10-03T07:16:03.669Z,102156.44
2018-10-03T07:19:28.146Z,102161.56
2018-10-03T07:22:52.715Z,102157.77
2018-10-03T07:26:17.322Z,102165.99
2018-10-03T07:29:41.934Z,102173.50
2018-10-03T07:33:06.504Z,102185.63
2018-10-03T07:36:30.945Z,102180.42
2018-10-03T07:39:55.449Z,102176.72
2018-10-03T07:43:19.866Z,102183.77
2018-10-03T07:46:44.391Z,102199.41
2018-10-03T07:50:09.324Z,102203.82
2018-10-03T07:53:33.784Z,102211.18
2018-10-03T07:56:58.304Z,102215.92
2018-10-03T08:00:29.158Z,102225.08
2018-10-03T08:03:53.702Z,102227.83
2018-10-03T08:07:18.613Z,102232.15
2018-10-03T08:10:43.079Z,102235.72
2018-10-03T08:14:07.633Z,102236.08
2018-10-03T08:17:32.240Z,102245.34
2018-10-03T08:20:56.824Z,102249.88
2018-10-03T08:24:21.359Z,102255.22
2018-10-03T08:27:45.792Z,102246.64
2018-10-03T08:31:10.225Z,102251.77
2018-10-03T08:34:34.714Z,102252.25
2018-10-03T08:37:59.176Z,102258.73
2018-10-03T08:41:23.632Z,102265.62
2018-10-03T08:44:48.108Z,102264.86
2018-10-03T08:48:12.509Z,102271.97
2018-10-03T08:51:36.963Z,102283.01
2018-10-03T08:55:01.420Z,102286.68
2018-10-03T08:58:26.555Z,102289.22
2018-10-03T09:05:32.561Z,102291.84
2018-10-03T09:08:56.943Z,102302.02
2018-10-03T09:12:21.390Z,102305.02
2018-10-03T09:15:45.789Z,102309.28
2018-10-03T09:19:10.280Z,102315.60
2018-10-03T09:22:34.688Z,102310.76
2018-10-03T09:25:59.185Z,102314.05
2018-10-03T09:29:23.750Z,102320.22
2018-10-03T09:32:48.183Z,102323.84
2018-10-03T09:36:12.675Z,102319.84
2018-10-03T09:39:37.323Z,102321.56
2018-10-03T09:43:01.712Z,102323.15
2018-10-03T09:46:26.236Z,102331.33
2018-10-03T09:49:50.633Z,102331.91
2018-10-03T09:53:15.084Z,102330.81
2018-10-03T09:56:39.549Z,102332.72
2018-10-03T10:00:04.512Z,102339.84
2018-10-03T10:03:28.916Z,102351.59
2018-10-03T10:06:53.312Z,102359.14
2018-10-03T10:10:17.784Z,102363.58
2018-10-03T10:13:42.263Z,102364.20
2018-10-03T10:17:06.730Z,102368.52
2018-10-03T10:20:31.167Z,102364.81
2018-10-03T10:23:55.702Z,102370.88
2018-10-03T10:27:20.141Z,102364.16
2018-10-03T10:30:44.546Z,102358.80
2018-10-03T10:34:09.035Z,102356.60
2018-10-03T10:37:33.529Z,102359.80
2018-10-03T10:40:58.125Z,102359.01
2018-10-03T10:44:22.496Z,102354.67
2018-10-03T10:47:46.960Z,102362.05
2018-10-03T10:51:11.467Z,102373.98
2018-10-03T10:54:35.868Z,102368.22
2018-10-03T10:58:00.334Z,102376.18
2018-10-03T11:01:24.732Z,102383.08
2018-10-03T11:04:49.169Z,102378.39
2018-10-03T11:08:13.661Z,102380.97
2018-10-03T11:11:38.131Z,102385.67
2018-10-03T11:15:02.540Z,102390.94
2018-10-03T11:18:27.026Z,102385.33
2018-10-03T11:21:51.483Z,102380.86
2018-10-03T11:25:15.909Z,102387.59
2018-10-03T11:28:40.409Z,102387.28
2018-10-03T11:32:05.122Z,102387.43
2018-10-03T11:35:29.582Z,102392.22
2018-10-03T11:38:53.963Z,102392.91
2018-10-03T11:42:18.389Z,102392.87
2018-10-03T11:45:42.812Z,102390.77
2018-10-03T11:49:07.455Z,102381.16
2018-10-03T11:52:31.864Z,102371.09
2018-10-03T11:55:56.264Z,102378.05
2018-10-03T11:59:20.732Z,102385.63
2018-10-03T12:02:51.753Z,102372.92
2018-10-03T12:06:16.175Z,102368.27
2018-10-03T12:09:40.585Z,102370.47
2018-10-03T12:13:05.052Z,102368.91
2018-10-03T12:16:29.447Z,102371.63
2018-10-03T12:19:53.905Z,102363.80
2018-10-03T12:23:18.363Z,102383.17
2018-10-03T12:26:42.817Z,102375.41
2018-10-03T12:30:07.318Z,102362.77
2018-10-03T12:33:31.997Z,102365.22
2018-10-03T12:36:56.344Z,102365.01
2018-10-03T12:40:20.943Z,102373.23
2018-10-03T12:43:45.391Z,102353.08
2018-10-03T12:47:09.797Z,102359.70
2018-10-03T12:50:34.196Z,102355.84
2018-10-03T12:53:58.662Z,102372.48
2018-10-03T12:57:23.095Z,102368.13
2018-10-03T13:00:47.570Z,102368.86
2018-10-03T13:04:11.995Z,102376.38
2018-10-03T13:07:36.417Z,102372.56
2018-10-03T13:11:00.826Z,102370.00
2018-10-03T13:14:25.260Z,102370.03
2018-10-03T13:17:49.670Z,102373.52
2018-10-03T13:21:14.083Z,102375.05
2018-10-03T13:24:38.521Z,102371.23
2018-10-03T13:28:02.976Z,102376.55
2018-10-03T13:31:27.365Z,102368.18
2018-10-03T13:34:51.774Z,102380.40
2018-10-03T13:38:16.185Z,102362.63
2018-10-03T13:41:40.720Z,102357.51
2018-10-03T13:45:05.206Z,102364.28
2018-10-03T13:48:29.660Z,102358.70
2018-10-03T13:51:54.066Z,102345.48
2018-10-03T13:55:18.498Z,102352.34
2018-10-03T13:58:42.953Z,102357.30
2018-10-03T14:02:07.385Z,102362.94
2018-10-03T14:05:31.827Z,102366.10
2018-10-03T14:08:56.295Z,102359.30
2018-10-03T14:12:20.699Z,102350.66
2018-10-03T14:15:45.137Z,102351.48
2018-10-03T14:19:09.505Z,102355.44
2018-10-03T14:22:33.924Z,102355.48
2018-10-03T14:25:58.359Z,102346.16
2018-10-03T14:29:22.858Z,102352.68
2018-10-03T14:32:47.263Z,102349.78
2018-10-03T14:36:11.632Z,102353.08
2018-10-03T14:39:36.276Z,102350.10
2018-10-03T14:43:00.704Z,102353.03
2018-10-03T14:46:25.232Z,102347.55
2018-10-03T14:49:49.670Z,102342.34
2018-10-03T14:53:14.193Z,102340.61
2018-10-03T14:56:38.803Z,102336.81
2018-10-03T15:00:03.381Z,102331.63
2018-10-03T15:03:27.840Z,102327.66
2018-10-03T15:06:53.153Z,102324.32
2018-10-03T15:10:17.644Z,102324.50
2018-10-03T15:13:42.059Z,102333.27
2018-10-03T15:17:06.733Z,102326.64
2018-10-03T15:20:31.204Z,102338.61
2018-10-03T15:23:55.630Z,102345.14
2018-10-03T15:27:20.058Z,102336.08
2018-10-03T15:30:44.486Z,102345.65
2018-10-03T15:34:08.954Z,102351.42
2018-10-03T15:37:33.397Z,102349.53
2018-10-03T15:40:57.847Z,102344.03
2018-10-03T15:44:22.312Z,102349.25
2018-10-03T15:47:46.777Z,102352.94
2018-10-03T15:51:11.277Z,102342.64
2018-10-03T15:54:35.726Z,102346.00
2018-10-03T15:58:00.141Z,102351.27
2018-10-03T16:01:24.567Z,102355.78
2018-10-03T16:04:48.996Z,102348.00
2018-10-03T16:08:13.518Z,102346.78
2018-10-03T16:11:37.916Z,102359.09
2018-10-03T16:15:02.370Z,102351.81
2018-10-03T16:18:26.914Z,102361.46
2018-10-03T16:21:51.444Z,102366.08
2018-10-03T16:25:15.982Z,102370.64
2018-10-03T16:28:40.623Z,102378.00
2018-10-03T16:32:05.139Z,102382.34
2018-10-03T16:35:29.657Z,102377.94
2018-10-03T16:38:54.267Z,102377.49
2018-10-03T16:42:19.011Z,102380.17
2018-10-03T16:45:43.883Z,102381.47
2018-10-03T16:49:08.344Z,102392.05
2018-10-03T16:52:32.936Z,102390.44
2018-10-03T16:55:57.749Z,102390.32
2018-10-03T16:59:22.491Z,102399.58
2018-10-03T17:02:47.408Z,102407.43
2018-10-03T17:06:12.309Z,102417.67
2018-10-03T17:09:36.741Z,102420.59
2018-10-03T17:13:01.200Z,102419.03
2018-10-03T17:16:26.533Z,102426.18
2018-10-03T17:19:50.951Z,102424.69
2018-10-03T17:23:15.368Z,102435.38
2018-10-03T17:26:39.815Z,102436.47
2018-10-03T17:30:04.374Z,102447.18
2018-10-03T17:33:28.874Z,102441.92
2018-10-03T17:36:54.281Z,102448.91
2018-10-03T17:40:18.746Z,102447.71
2018-10-03T17:43:43.499Z,102448.08
2018-10-03T17:47:07.920Z,102450.03
2018-10-03T17:50:32.351Z,102456.95
2018-10-03T17:53:57.030Z,102460.70
2018-10-03T17:57:21.483Z,102466.20
2018-10-03T18:00:45.932Z,102472.80
2018-10-03T18:04:10.334Z,102466.80
2018-10-03T18:07:34.831Z,102469.23
2018-10-03T18:10:59.243Z,102472.28
2018-10-03T18:14:24.280Z,102476.94
2018-10-03T18:17:48.713Z,102480.33
2018-10-03T18:21:13.293Z,102479.08
2018-10-03T18:24:37.767Z,102482.50
2018-10-03T18:28:02.222Z,102481.47
2018-10-03T18:31:26.674Z,102487.98
2018-10-03T18:34:51.043Z,102491.02
2018-10-03T18:38:15.520Z,102493.28
2018-10-03T18:41:40.550Z,102494.31
2018-10-03T18:45:05.159Z,102492.03
2018-10-03T18:48:29.613Z,102499.03
2018-10-03T18:51:54.036Z,102495.91
2018-10-03T18:55:18.438Z,102496.69
2018-10-03T18:58:42.878Z,102499.51
2018-10-03T19:02:07.616Z,102494.01
2018-10-03T19:05:32.110Z,102497.55
2018-10-03T19:08:56.530Z,102494.94
2018-10-03T19:12:21.017Z,102494.14
2018-10-03T19:15:45.476Z,102496.52
2018-10-03T19:19:09.904Z,102493.20
2018-10-03T19:22:34.344Z,102493.25
2018-10-03T19:25:58.756Z,102505.09
2018-10-03T19:29:23.279Z,102503.50
2018-10-03T19:32:47.745Z,102510.94
2018-10-03T19:36:12.213Z,102507.67
2018-10-03T19:39:36.608Z,102509.47
2018-10-03T19:43:00.994Z,102505.94
2018-10-03T19:46:25.400Z,102506.21
2018-10-03T19:49:49.892Z,102505.50
2018-10-03T19:53:15.263Z,102505.06
2018-10-03T19:56:39.746Z,102509.03
2018-10-03T20:00:04.320Z,102507.28
2018-10-03T20:03:28.972Z,102507.73
2018-10-03T20:06:53.303Z,102516.28
2018-10-03T20:10:17.707Z,102516.64
2018-10-03T20:13:42.203Z,102513.89
2018-10-03T20:17:06.836Z,102508.99
2018-10-03T20:20:31.286Z,102514.25
2018-10-03T20:23:55.722Z,102513.16
2018-10-03T20:27:20.219Z,102520.74
2018-10-03T20:30:44.593Z,102520.70
2018-10-03T20:34:09.224Z,102529.41
2018-10-03T20:37:33.689Z,102532.73
2018-10-03T20:40:58.066Z,102535.85
2018-10-03T20:44:22.491Z,102535.85
2018-10-03T20:47:46.871Z,102538.06
2018-10-03T20:51:11.332Z,102545.02
2018-10-03T20:54:35.759Z,102541.18
2018-10-03T20:58:23.352Z,102536.72
2018-10-03T21:01:47.837Z,102541.73
2018-10-03T21:05:12.260Z,102540.64
2018-10-03T21:08:36.689Z,102543.27
2018-10-03T21:12:01.080Z,102543.09
2018-10-03T21:15:25.511Z,102545.58
2018-10-03T21:18:49.872Z,102540.91
2018-10-03T21:22:14.265Z,102540.50
2018-10-03T21:25:38.666Z,102544.22
2018-10-03T21:29:03.073Z,102546.01
2018-10-03T21:32:28.534Z,102535.88
2018-10-03T21:35:52.978Z,102541.41
2018-10-03T21:39:17.554Z,102538.88
2018-10-03T21:42:42.023Z,102545.06
2018-10-03T21:46:06.547Z,102541.39
2018-10-03T21:49:31.039Z,102542.61
2018-10-03T21:52:55.526Z,102544.34
2018-10-03T21:56:19.916Z,102547.67
2018-10-03T21:59:44.303Z,102546.97
2018-10-03T22:03:08.741Z,102543.25
2018-10-03T22:06:33.179Z,102547.12
2018-10-03T22:09:57.552Z,102544.83
2018-10-03T22:13:21.964Z,102549.36
2018-10-03T22:16:46.375Z,102545.48
2018-10-03T22:20:10.847Z,102542.23
2018-10-03T22:23:35.255Z,102543.93
2018-10-03T22:26:59.710Z,102545.51
2018-10-03T22:30:24.094Z,102545.65
2018-10-03T22:33:48.509Z,102542.40
2018-10-03T22:37:12.941Z,102545.17
2018-10-03T22:40:37.359Z,102540.58
2018-10-03T22:44:01.936Z,102535.56
2018-10-03T22:47:26.341Z,102535.81
2018-10-03T22:50:50.758Z,102538.53
2018-10-03T22:54:15.141Z,102534.28
2018-10-03T22:57:39.526Z,102538.34
2018-10-03T23:01:03.940Z,102535.30
2018-10-03T23:04:28.727Z,102533.19
2018-10-03T23:07:53.232Z,102531.95
2018-10-03T23:11:17.642Z,102541.43
2018-10-03T23:14:42.048Z,102541.03
2018-10-03T23:18:06.683Z,102538.10
2018-10-03T23:21:31.096Z,102542.22
2018-10-03T23:24:55.557Z,102541.17
2018-10-03T23:28:19.982Z,102543.56
2018-10-03T23:31:44.390Z,102544.34
2018-10-03T23:35:08.865Z,102538.03
2018-10-03T23:38:33.257Z,102537.92
2018-10-03T23:41:57.749Z,102543.61
2018-10-03T23:45:22.111Z,102541.33
2018-10-03T23:48:46.543Z,102536.73
2018-10-03T23:52:11.021Z,102538.48
2018-10-03T23:55:35.489Z,102533.15
2018-10-03T23:58:59.904Z,102532.97
